Time;durP1;ratioP1;P1;durP2;ratioP2;P2;SDS_P1;SDS_P2;PMS_P1;PMS_P2;Temp;Humidity;BMP_temperature;BMP_pressure;BME280_temperature;BME280_humidity;BME280_pressure;Samples;Min_cycle;Max_cycle;Signal;HPM_P1;HPM_P2
2021/03/27 00:01:12;;;;;;;67.13;33.10;;;;;;;;;;777306;179;920941;-64
2021/03/27 00:03:38;;;;;;;62.50;32.90;;;;;;;;;;779884;179;919623;-65
2021/03/27 00:06:06;;;;;;;73.67;32.70;;;;;;;;;;776692;179;1514481;-64
2021/03/27 00:08:48;;;;;;;61.40;36.80;;;;;;;;;;778174;179;919151;-65
2021/03/27 00:11:18;;;;;;;62.47;35.30;;;;;;;;;;774765;179;918984;-66
2021/03/27 00:13:59;;;;;;;62.60;33.92;;;;;;;;;;777718;179;920439;-66
2021/03/27 00:16:24;;;;;;;61.90;33.90;;;;;;;;;;774601;179;1025833;-66
2021/03/27 00:18:52;;;;;;;63.00;36.77;;;;;;;;;;776397;179;1021166;-64
2021/03/27 00:21:19;;;;;;;73.37;38.17;;;;;;;;;;781245;179;919694;-66
2021/03/27 00:23:51;;;;;;;69.70;38.33;;;;;;;;;;776085;179;918960;-66
2021/03/27 00:26:16;;;;;;;69.62;37.10;;;;;;;;;;772959;179;943555;-65
2021/03/27 00:28:44;;;;;;;70.97;38.57;;;;;;;;;;782156;179;919260;-65
2021/03/27 00:31:11;;;;;;;68.13;32.80;;;;;;;;;;779145;179;921781;-66
2021/03/27 00:33:37;;;;;;;59.53;34.80;;;;;;;;;;777275;179;919011;-66
2021/03/27 00:36:12;;;;;;;52.23;32.27;;;;;;;;;;772784;179;919343;-65
2021/03/27 00:38:38;;;;;;;55.80;30.37;;;;;;;;;;782619;179;919075;-67
2021/03/27 00:41:04;;;;;;;58.97;30.90;;;;;;;;;;773026;179;921611;-65
2021/03/27 00:43:31;;;;;;;59.00;31.20;;;;;;;;;;777398;179;919837;-67
2021/03/27 00:45:58;;;;;;;52.77;27.40;;;;;;;;;;767392;179;1944081;-69
2021/03/27 00:48:25;;;;;;;52.53;25.83;;;;;;;;;;783361;179;918492;-67
2021/03/27 00:50:53;;;;;;;46.42;23.38;;;;;;;;;;776471;179;919810;-67
2021/03/27 00:53:20;;;;;;;47.70;22.50;;;;;;;;;;765495;179;2352079;-69
2021/03/27 00:55:47;;;;;;;43.07;23.50;;;;;;;;;;783087;179;902397;-66
2021/03/27 00:58:13;;;;;;;44.15;23.60;;;;;;;;;;774964;178;925882;-66
2021/03/27 01:00:40;;;;;;;42.47;21.87;;;;;;;;;;778007;179;919291;-66
2021/03/27 01:03:09;;;;;;;42.50;21.77;;;;;;;;;;773784;179;1026449;-66
2021/03/27 01:05:35;;;;;;;46.13;22.13;;;;;;;;;;782696;179;920499;-66
2021/03/27 01:08:01;;;;;;;45.10;24.23;;;;;;;;;;771647;179;1268476;-67
2021/03/27 01:10:31;;;;;;;48.70;22.40;;;;;;;;;;777730;179;920081;-67
2021/03/27 01:12:56;;;;;;;46.93;22.13;;;;;;;;;;780708;179;918768;-67
2021/03/27 01:15:26;;;;;;;53.60;22.13;;;;;;;;;;778038;179;919178;-65
2021/03/27 01:17:51;;;;;;;45.30;19.80;;;;;;;;;;777695;179;918903;-65
2021/03/27 01:20:19;;;;;;;38.47;22.67;;;;;;;;;;777501;179;919222;-66
2021/03/27 01:22:45;;;;;;;42.77;22.17;;;;;;;;;;780994;179;918309;-68
2021/03/27 01:25:12;;;;;;;49.97;22.43;;;;;;;;;;776276;179;882021;-66
2021/03/27 01:27:42;;;;;;;49.63;22.37;;;;;;;;;;775971;179;918451;-67
2021/03/27 01:30:09;;;;;;;42.77;21.90;;;;;;;;;;778343;179;917331;-66
2021/03/27 01:32:38;;;;;;;57.23;23.60;;;;;;;;;;786365;179;919185;-66
2021/03/27 01:35:08;;;;;;;47.87;21.10;;;;;;;;;;766593;179;1321164;-64
2021/03/27 01:37:39;;;;;;;37.63;19.00;;;;;;;;;;776190;179;921131;-63
2021/03/27 01:40:11;;;;;;;41.20;22.07;;;;;;;;;;775988;179;920628;-63
2021/03/27 01:42:40;;;;;;;40.73;18.20;;;;;;;;;;781854;179;912369;-63
2021/03/27 01:45:08;;;;;;;43.37;19.30;;;;;;;;;;775941;179;911338;-67
2021/03/27 01:47:44;;;;;;;44.03;19.60;;;;;;;;;;777256;179;919359;-62
2021/03/27 01:50:13;;;;;;;37.67;16.92;;;;;;;;;;775033;179;919814;-61
2021/03/27 01:52:44;;;;;;;34.03;17.55;;;;;;;;;;781990;179;919336;-62
2021/03/27 01:55:14;;;;;;;36.37;17.30;;;;;;;;;;782205;179;817708;-61
2021/03/27 01:57:43;;;;;;;39.13;19.03;;;;;;;;;;779352;179;630858;-61
2021/03/27 02:00:09;;;;;;;30.03;18.33;;;;;;;;;;774982;179;919492;-61
2021/03/27 02:02:35;;;;;;;40.23;17.53;;;;;;;;;;782921;179;872370;-61
2021/03/27 02:05:08;;;;;;;33.00;16.57;;;;;;;;;;773650;179;918591;-61
2021/03/27 02:07:38;;;;;;;31.37;15.80;;;;;;;;;;776659;179;919444;-62
2021/03/27 02:10:05;;;;;;;42.03;18.80;;;;;;;;;;778237;177;918978;-61
2021/03/27 02:12:33;;;;;;;47.87;18.60;;;;;;;;;;783279;179;919155;-60
2021/03/27 02:15:00;;;;;;;43.83;18.23;;;;;;;;;;778794;179;924811;-61
2021/03/27 02:17:28;;;;;;;35.40;18.30;;;;;;;;;;776971;179;918679;-62
2021/03/27 02:19:55;;;;;;;44.40;19.90;;;;;;;;;;774014;179;1019365;-61
2021/03/27 02:22:24;;;;;;;45.00;19.47;;;;;;;;;;780654;179;918595;-61
2021/03/27 02:25:00;;;;;;;37.03;18.10;;;;;;;;;;776475;179;921147;-63
2021/03/27 02:27:29;;;;;;;38.97;17.75;;;;;;;;;;777334;179;919721;-62
2021/03/27 02:29:59;;;;;;;42.47;20.37;;;;;;;;;;773730;179;918638;-63
2021/03/27 02:32:31;;;;;;;36.67;20.07;;;;;;;;;;777516;179;1020702;-62
2021/03/27 02:34:58;;;;;;;42.47;20.77;;;;;;;;;;778053;179;919652;-62
2021/03/27 02:37:24;;;;;;;39.07;19.60;;;;;;;;;;772124;179;1736302;-61
2021/03/27 02:39:51;;;;;;;34.40;15.83;;;;;;;;;;777581;179;918970;-61
2021/03/27 02:42:32;;;;;;;42.00;19.92;;;;;;;;;;779213;179;922464;-61
2021/03/27 02:45:04;;;;;;;35.47;18.20;;;;;;;;;;782732;179;919429;-62
2021/03/27 02:47:36;;;;;;;39.47;18.40;;;;;;;;;;782045;179;918892;-62
2021/03/27 02:50:08;;;;;;;39.67;18.50;;;;;;;;;;775161;179;919200;-63
2021/03/27 02:52:35;;;;;;;38.60;17.33;;;;;;;;;;765773;179;2410902;-61
2021/03/27 02:55:04;;;;;;;45.07;19.30;;;;;;;;;;776670;179;919295;-62
2021/03/27 02:57:46;;;;;;;46.40;19.03;;;;;;;;;;767293;176;3749885;-62
2021/03/27 03:00:12;;;;;;;33.87;17.50;;;;;;;;;;774903;179;919491;-63
2021/03/27 03:02:41;;;;;;;36.43;17.93;;;;;;;;;;774589;179;934107;-63
2021/03/27 03:05:08;;;;;;;33.07;17.87;;;;;;;;;;776618;179;919784;-62
2021/03/27 03:07:40;;;;;;;36.60;19.10;;;;;;;;;;779163;179;916696;-63
2021/03/27 03:10:06;;;;;;;48.27;19.60;;;;;;;;;;787359;179;918688;-62
2021/03/27 03:12:38;;;;;;;41.77;20.30;;;;;;;;;;775068;179;921558;-63
2021/03/27 03:15:10;;;;;;;40.57;18.67;;;;;;;;;;774560;179;919413;-64
2021/03/27 03:17:36;;;;;;;37.43;16.73;;;;;;;;;;774120;179;1171214;-62
2021/03/27 03:20:03;;;;;;;36.80;18.40;;;;;;;;;;789675;176;914303;-62
2021/03/27 03:22:34;;;;;;;39.63;20.43;;;;;;;;;;775805;178;915337;-62
2021/03/27 03:25:00;;;;;;;45.43;18.43;;;;;;;;;;780783;179;717037;-63
2021/03/27 03:27:30;;;;;;;46.63;18.50;;;;;;;;;;780848;179;919263;-63
2021/03/27 03:29:56;;;;;;;45.03;17.43;;;;;;;;;;791434;179;633612;-63
2021/03/27 03:32:25;;;;;;;39.87;18.67;;;;;;;;;;780961;179;616598;-64
2021/03/27 03:35:11;;;;;;;42.43;19.77;;;;;;;;;;779134;179;870023;-64
2021/03/27 03:37:38;;;;;;;43.07;19.37;;;;;;;;;;775257;179;918684;-68
2021/03/27 03:40:05;;;;;;;47.27;22.03;;;;;;;;;;786367;179;648826;-64
2021/03/27 03:42:37;;;;;;;42.17;18.80;;;;;;;;;;784005;179;626240;-63
2021/03/27 03:45:07;;;;;;;44.93;21.10;;;;;;;;;;775542;179;1624185;-63
2021/03/27 03:47:34;;;;;;;38.93;17.93;;;;;;;;;;779229;179;918282;-64
2021/03/27 03:50:12;;;;;;;39.00;18.00;;;;;;;;;;778310;179;918900;-63
2021/03/27 03:52:56;;;;;;;46.13;20.90;;;;;;;;;;781384;179;920278;-63
2021/03/27 03:55:29;;;;;;;40.13;19.63;;;;;;;;;;780465;179;919244;-65
2021/03/27 03:58:01;;;;;;;42.87;18.70;;;;;;;;;;767853;181;919592;-63
2021/03/27 04:00:27;;;;;;;42.37;19.70;;;;;;;;;;773866;179;919562;-65
2021/03/27 04:03:00;;;;;;;36.75;18.85;;;;;;;;;;779037;179;923450;-69
2021/03/27 04:05:31;;;;;;;44.97;17.67;;;;;;;;;;770894;179;1246925;-64
2021/03/27 04:07:57;;;;;;;33.77;18.97;;;;;;;;;;783372;179;919061;-64
2021/03/27 04:10:23;;;;;;;40.63;18.17;;;;;;;;;;775193;179;919331;-67
2021/03/27 04:12:49;;;;;;;32.58;16.67;;;;;;;;;;777643;179;919608;-66
2021/03/27 04:15:16;;;;;;;39.17;17.50;;;;;;;;;;780118;179;921111;-64
2021/03/27 04:17:43;;;;;;;41.53;18.17;;;;;;;;;;778573;179;919230;-65
2021/03/27 04:20:09;;;;;;;39.57;19.20;;;;;;;;;;775865;179;919610;-65
2021/03/27 04:22:36;;;;;;;37.93;18.00;;;;;;;;;;776176;179;919272;-65
2021/03/27 04:25:02;;;;;;;39.30;19.62;;;;;;;;;;779462;179;919377;-64
2021/03/27 04:27:28;;;;;;;39.57;17.50;;;;;;;;;;776726;179;934720;-65
2021/03/27 04:29:54;;;;;;;34.20;16.00;;;;;;;;;;775460;179;919460;-66
2021/03/27 04:32:22;;;;;;;32.43;15.57;;;;;;;;;;782412;178;918452;-66
2021/03/27 04:34:53;;;;;;;42.47;19.17;;;;;;;;;;777597;179;921908;-67
2021/03/27 04:37:22;;;;;;;34.30;16.40;;;;;;;;;;775426;179;918932;-66
2021/03/27 04:39:50;;;;;;;50.70;21.23;;;;;;;;;;777551;178;941493;-67
2021/03/27 04:42:16;;;;;;;37.80;18.53;;;;;;;;;;775473;179;2135219;-67
2021/03/27 04:44:42;;;;;;;42.80;16.10;;;;;;;;;;776204;179;919270;-68
2021/03/27 04:47:13;;;;;;;40.57;19.50;;;;;;;;;;778629;179;919143;-69
2021/03/27 04:49:41;;;;;;;35.05;18.27;;;;;;;;;;778649;179;919160;-68
2021/03/27 04:52:18;;;;;;;41.43;18.43;;;;;;;;;;788047;176;917713;-68
2021/03/27 04:54:59;;;;;;;38.70;18.03;;;;;;;;;;778523;179;928079;-70
2021/03/27 04:57:25;;;;;;;38.50;18.30;;;;;;;;;;774792;179;918612;-69
2021/03/27 05:00:07;;;;;;;41.07;19.50;;;;;;;;;;775217;179;919697;-69
2021/03/27 05:02:46;;;;;;;48.30;21.27;;;;;;;;;;774642;179;919073;-68
2021/03/27 05:05:13;;;;;;;39.40;16.63;;;;;;;;;;776233;179;919202;-70
2021/03/27 05:07:40;;;;;;;34.23;18.93;;;;;;;;;;774999;179;1617950;-69
2021/03/27 05:10:08;;;;;;;39.33;19.40;;;;;;;;;;778086;179;919736;-68
2021/03/27 05:12:53;;;;;;;45.57;20.60;;;;;;;;;;773774;179;918769;-69
2021/03/27 05:15:19;;;;;;;35.53;18.47;;;;;;;;;;772381;179;919388;-69
2021/03/27 05:17:55;;;;;;;37.90;19.65;;;;;;;;;;771842;179;1020477;-69
2021/03/27 05:20:28;;;;;;;38.30;18.73;;;;;;;;;;774815;179;964239;-67
2021/03/27 05:22:57;;;;;;;47.07;21.50;;;;;;;;;;773116;179;919592;-68
2021/03/27 05:25:23;;;;;;;37.33;19.43;;;;;;;;;;775959;179;920999;-68
2021/03/27 05:27:51;;;;;;;38.03;19.20;;;;;;;;;;774590;179;920370;-67
2021/03/27 05:30:21;;;;;;;34.37;18.33;;;;;;;;;;774995;179;919007;-65
2021/03/27 05:33:02;;;;;;;34.83;17.53;;;;;;;;;;779541;179;915252;-66
2021/03/27 05:35:28;;;;;;;38.70;17.90;;;;;;;;;;781532;179;920681;-65
2021/03/27 05:37:54;;;;;;;45.10;19.97;;;;;;;;;;761886;179;921049;-68
2021/03/27 05:40:37;;;;;;;36.37;17.37;;;;;;;;;;776892;179;911647;-66
2021/03/27 05:43:08;;;;;;;32.97;15.93;;;;;;;;;;766107;179;912580;-65
2021/03/27 05:45:41;;;;;;;39.87;17.80;;;;;;;;;;785259;177;922708;-65
2021/03/27 05:48:22;;;;;;;34.60;17.63;;;;;;;;;;785035;179;933220;-65
2021/03/27 05:50:50;;;;;;;34.50;18.93;;;;;;;;;;787179;179;919516;-63
2021/03/27 05:53:34;;;;;;;43.80;19.20;;;;;;;;;;773669;179;938879;-63
2021/03/27 05:56:00;;;;;;;44.73;19.13;;;;;;;;;;764591;182;920245;-63
2021/03/27 05:58:29;;;;;;;38.70;19.20;;;;;;;;;;767285;179;918119;-62
2021/03/27 06:00:56;;;;;;;39.23;18.80;;;;;;;;;;782802;179;917703;-62
2021/03/27 06:03:23;;;;;;;36.03;19.73;;;;;;;;;;773979;179;919340;-62
2021/03/27 06:06:02;;;;;;;38.40;21.37;;;;;;;;;;777429;179;939436;-62
2021/03/27 06:08:44;;;;;;;44.97;21.53;;;;;;;;;;775625;179;919569;-70
2021/03/27 06:11:21;;;;;;;42.53;19.00;;;;;;;;;;777102;179;920186;-64
2021/03/27 06:13:49;;;;;;;71.50;31.08;;;;;;;;;;775536;179;919149;-62
2021/03/27 06:16:25;;;;;;;62.17;25.33;;;;;;;;;;781549;179;919847;-61
2021/03/27 06:18:54;;;;;;;42.47;22.20;;;;;;;;;;778681;179;906242;-63
2021/03/27 06:21:29;;;;;;;51.40;25.47;;;;;;;;;;777230;179;919875;-60
2021/03/27 06:23:56;;;;;;;59.50;32.77;;;;;;;;;;775025;179;920357;-63
2021/03/27 06:26:23;;;;;;;38.67;20.57;;;;;;;;;;776344;179;918289;-62
2021/03/27 06:28:52;;;;;;;44.07;23.27;;;;;;;;;;780896;179;919300;-61
2021/03/27 06:31:21;;;;;;;40.93;21.43;;;;;;;;;;772573;179;925892;-60
2021/03/27 06:34:05;;;;;;;44.58;20.95;;;;;;;;;;767976;179;2252064;-61
2021/03/27 06:36:34;;;;;;;36.50;19.13;;;;;;;;;;762219;179;919909;-61
2021/03/27 06:39:00;;;;;;;34.10;17.80;;;;;;;;;;777501;179;918537;-62
2021/03/27 06:41:41;;;;;;;35.07;17.70;;;;;;;;;;779425;179;918767;-61
2021/03/27 06:44:13;;;;;;;32.57;14.70;;;;;;;;;;768294;179;921076;-63
2021/03/27 06:46:54;;;;;;;34.13;16.90;;;;;;;;;;774380;179;915192;-61
2021/03/27 06:49:21;;;;;;;37.80;16.40;;;;;;;;;;764450;179;911667;-62
2021/03/27 06:51:48;;;;;;;31.73;17.67;;;;;;;;;;773171;179;917855;-66
2021/03/27 06:54:20;;;;;;;34.23;16.70;;;;;;;;;;782906;179;919555;-62
2021/03/27 06:56:58;;;;;;;29.93;17.37;;;;;;;;;;783834;177;919476;-62
2021/03/27 06:59:29;;;;;;;27.10;15.80;;;;;;;;;;770520;180;920363;-62
2021/03/27 07:01:56;;;;;;;32.73;17.27;;;;;;;;;;775540;179;918455;-61
2021/03/27 07:04:41;;;;;;;37.20;16.70;;;;;;;;;;774107;179;919426;-61
2021/03/27 07:07:07;;;;;;;31.67;15.80;;;;;;;;;;765552;179;928192;-61
2021/03/27 07:09:48;;;;;;;33.17;17.20;;;;;;;;;;783458;179;932408;-62
2021/03/27 07:12:33;;;;;;;33.23;16.47;;;;;;;;;;783430;179;919410;-62
2021/03/27 07:15:13;;;;;;;31.77;16.40;;;;;;;;;;782382;179;919019;-62
2021/03/27 07:17:39;;;;;;;40.10;18.27;;;;;;;;;;783504;179;1098577;-62
2021/03/27 07:20:12;;;;;;;29.23;15.20;;;;;;;;;;775427;179;918729;-61
2021/03/27 07:22:43;;;;;;;36.03;17.13;;;;;;;;;;776571;179;635955;-62
2021/03/27 07:25:18;;;;;;;31.20;17.27;;;;;;;;;;779414;179;630581;-62
2021/03/27 07:27:48;;;;;;;32.40;17.00;;;;;;;;;;778262;179;621271;-62
2021/03/27 07:30:20;;;;;;;32.40;15.83;;;;;;;;;;786836;179;638387;-61
2021/03/27 07:32:52;;;;;;;39.43;18.00;;;;;;;;;;779848;179;625710;-62
2021/03/27 07:35:37;;;;;;;30.50;15.43;;;;;;;;;;782015;179;633403;-62
2021/03/27 07:38:08;;;;;;;39.90;19.07;;;;;;;;;;769585;179;642327;-62
2021/03/27 07:40:34;;;;;;;32.03;15.80;;;;;;;;;;781737;179;687079;-62
2021/03/27 07:43:18;;;;;;;27.70;15.00;;;;;;;;;;781010;179;634808;-63
2021/03/27 07:45:59;;;;;;;40.50;14.47;;;;;;;;;;780223;179;622613;-62
2021/03/27 07:48:31;;;;;;;29.47;16.23;;;;;;;;;;771535;179;617983;-66
2021/03/27 07:51:03;;;;;;;39.73;16.67;;;;;;;;;;788120;179;664241;-62
2021/03/27 07:53:31;;;;;;;32.87;17.40;;;;;;;;;;778011;179;630328;-62
2021/03/27 07:56:03;;;;;;;33.40;15.10;;;;;;;;;;777653;179;629138;-63
2021/03/27 07:58:35;;;;;;;30.83;16.37;;;;;;;;;;780535;179;618480;-62
2021/03/27 08:01:19;;;;;;;29.83;14.80;;;;;;;;;;785329;179;614529;-62
2021/03/27 08:03:51;;;;;;;35.07;16.83;;;;;;;;;;785148;179;817564;-62
2021/03/27 08:06:32;;;;;;;33.07;16.40;;;;;;;;;;789651;179;624206;-62
2021/03/27 08:09:13;;;;;;;24.43;15.07;;;;;;;;;;776194;179;617624;-60
2021/03/27 08:11:39;;;;;;;34.10;15.03;;;;;;;;;;785233;179;618637;-61
2021/03/27 08:14:19;;;;;;;32.53;17.43;;;;;;;;;;776158;179;634421;-61
2021/03/27 08:16:44;;;;;;;27.47;16.37;;;;;;;;;;774953;179;664749;-60
2021/03/27 08:19:13;;;;;;;23.13;12.97;;;;;;;;;;774535;179;624049;-61
2021/03/27 08:21:43;;;;;;;31.30;15.03;;;;;;;;;;784493;176;763045;-60
2021/03/27 08:24:25;;;;;;;33.73;13.43;;;;;;;;;;778144;179;663772;-61
2021/03/27 08:26:59;;;;;;;26.70;14.93;;;;;;;;;;777162;179;632916;-61
2021/03/27 08:29:31;;;;;;;28.40;15.40;;;;;;;;;;776934;179;624212;-61
2021/03/27 08:32:11;;;;;;;28.73;15.33;;;;;;;;;;780735;179;627666;-63
2021/03/27 08:34:43;;;;;;;25.77;15.57;;;;;;;;;;776905;179;630686;-62
2021/03/27 08:37:13;;;;;;;32.13;15.70;;;;;;;;;;784888;179;625960;-61
2021/03/27 08:39:53;;;;;;;26.10;14.07;;;;;;;;;;785739;179;624717;-60
2021/03/27 08:42:25;;;;;;;28.30;15.20;;;;;;;;;;784952;179;643369;-61
2021/03/27 08:44:57;;;;;;;33.13;14.20;;;;;;;;;;778674;179;677187;-61
2021/03/27 08:47:26;;;;;;;26.63;14.37;;;;;;;;;;780283;179;625748;-62
2021/03/27 08:49:58;;;;;;;28.03;14.93;;;;;;;;;;775690;179;722964;-62
2021/03/27 08:52:44;;;;;;;24.60;13.03;;;;;;;;;;787575;179;625967;-62
2021/03/27 08:55:13;;;;;;;26.00;13.60;;;;;;;;;;785249;179;610414;-64
2021/03/27 08:57:44;;;;;;;31.93;14.80;;;;;;;;;;788525;179;623196;-61
2021/03/27 09:00:11;;;;;;;29.00;14.23;;;;;;;;;;778511;179;646575;-63
2021/03/27 09:02:37;;;;;;;26.80;14.87;;;;;;;;;;781629;179;632556;-62
2021/03/27 09:05:05;;;;;;;31.30;13.97;;;;;;;;;;783901;179;618877;-62
2021/03/27 09:07:32;;;;;;;25.37;12.33;;;;;;;;;;768670;179;3240255;-62
2021/03/27 09:10:02;;;;;;;29.70;16.40;;;;;;;;;;781327;179;635040;-62
2021/03/27 09:12:30;;;;;;;24.95;13.95;;;;;;;;;;776987;179;624338;-62
2021/03/27 09:15:02;;;;;;;26.60;14.03;;;;;;;;;;785070;179;633507;-62
2021/03/27 09:17:29;;;;;;;26.13;14.63;;;;;;;;;;780537;179;620935;-62
2021/03/27 09:19:56;;;;;;;32.17;15.70;;;;;;;;;;784203;178;628595;-62
2021/03/27 09:22:28;;;;;;;29.10;13.10;;;;;;;;;;781835;179;643184;-61
2021/03/27 09:24:57;;;;;;;21.60;11.53;;;;;;;;;;786602;179;617927;-62
2021/03/27 09:27:29;;;;;;;39.13;17.53;;;;;;;;;;778712;179;618362;-61
2021/03/27 09:29:55;;;;;;;39.27;18.30;;;;;;;;;;782459;179;639562;-62
2021/03/27 09:32:27;;;;;;;29.17;15.43;;;;;;;;;;778594;179;760171;-62
2021/03/27 09:35:09;;;;;;;31.70;16.43;;;;;;;;;;787082;178;618864;-66
2021/03/27 09:37:37;;;;;;;34.00;19.00;;;;;;;;;;782474;179;620566;-63
2021/03/27 09:40:08;;;;;;;33.47;16.30;;;;;;;;;;782359;179;620381;-62
2021/03/27 09:42:50;;;;;;;31.20;16.33;;;;;;;;;;778506;179;653821;-62
2021/03/27 09:45:16;;;;;;;29.17;14.20;;;;;;;;;;776851;179;673036;-62
2021/03/27 09:47:46;;;;;;;33.23;17.77;;;;;;;;;;778641;179;628449;-65
2021/03/27 09:50:14;;;;;;;29.23;16.80;;;;;;;;;;785161;179;620611;-62
2021/03/27 09:52:58;;;;;;;28.93;14.93;;;;;;;;;;780117;179;654100;-61
2021/03/27 09:55:29;;;;;;;28.70;15.50;;;;;;;;;;784189;179;636051;-63
2021/03/27 09:57:56;;;;;;;28.70;15.30;;;;;;;;;;779726;179;620036;-62
2021/03/27 10:00:22;;;;;;;23.50;13.63;;;;;;;;;;780446;179;639424;-61
2021/03/27 10:02:50;;;;;;;24.27;13.40;;;;;;;;;;781540;179;630009;-61
2021/03/27 10:05:28;;;;;;;30.00;14.30;;;;;;;;;;779301;179;632459;-62
2021/03/27 10:07:57;;;;;;;31.30;16.67;;;;;;;;;;778492;179;618408;-61
2021/03/27 10:10:29;;;;;;;30.90;16.33;;;;;;;;;;780443;179;624996;-61
2021/03/27 10:12:58;;;;;;;31.23;18.00;;;;;;;;;;779556;179;632139;-62
2021/03/27 10:15:26;;;;;;;30.67;16.87;;;;;;;;;;785384;179;620648;-61
2021/03/27 10:17:53;;;;;;;28.80;16.03;;;;;;;;;;782594;179;629497;-61
2021/03/27 10:20:18;;;;;;;31.43;15.43;;;;;;;;;;779906;179;615829;-61
2021/03/27 10:22:50;;;;;;;25.47;13.63;;;;;;;;;;781708;179;623029;-61
2021/03/27 10:25:16;;;;;;;35.03;16.60;;;;;;;;;;784969;179;629162;-62
2021/03/27 10:27:43;;;;;;;36.23;17.20;;;;;;;;;;778970;179;628550;-62
2021/03/27 10:30:25;;;;;;;34.60;16.27;;;;;;;;;;778675;177;623392;-62
2021/03/27 10:32:56;;;;;;;33.90;16.60;;;;;;;;;;782788;178;627838;-61
2021/03/27 10:35:26;;;;;;;33.73;15.73;;;;;;;;;;790535;179;620158;-62
2021/03/27 10:37:58;;;;;;;29.33;15.40;;;;;;;;;;787366;179;627511;-61
2021/03/27 10:40:40;;;;;;;28.37;13.17;;;;;;;;;;779119;178;819104;-63
2021/03/27 10:43:11;;;;;;;23.57;13.23;;;;;;;;;;781139;179;633303;-61
2021/03/27 10:45:53;;;;;;;22.37;11.40;;;;;;;;;;778592;179;619111;-61
2021/03/27 10:48:20;;;;;;;26.40;12.70;;;;;;;;;;781129;179;621901;-62
2021/03/27 10:50:49;;;;;;;29.20;12.27;;;;;;;;;;778670;179;639475;-61
2021/03/27 10:53:21;;;;;;;23.90;11.07;;;;;;;;;;786714;179;616858;-61
2021/03/27 10:55:48;;;;;;;22.83;13.00;;;;;;;;;;780559;179;617717;-61
2021/03/27 10:58:28;;;;;;;29.97;14.53;;;;;;;;;;781619;179;654838;-62
2021/03/27 11:00:59;;;;;;;28.70;14.23;;;;;;;;;;778078;179;724177;-62
2021/03/27 11:03:34;;;;;;;30.53;14.77;;;;;;;;;;781813;179;626575;-62
2021/03/27 11:06:09;;;;;;;28.93;16.47;;;;;;;;;;781120;179;618034;-62
2021/03/27 11:08:35;;;;;;;29.03;15.80;;;;;;;;;;784097;179;615133;-62
2021/03/27 11:11:03;;;;;;;33.00;16.83;;;;;;;;;;778421;179;633167;-64
2021/03/27 11:13:30;;;;;;;23.23;11.33;;;;;;;;;;781869;179;647766;-63
2021/03/27 11:15:56;;;;;;;25.00;14.87;;;;;;;;;;781952;179;633424;-62
2021/03/27 11:18:22;;;;;;;26.98;13.07;;;;;;;;;;778013;179;1207003;-61
2021/03/27 11:20:51;;;;;;;27.20;13.37;;;;;;;;;;776607;179;642197;-64
2021/03/27 11:23:34;;;;;;;26.30;12.83;;;;;;;;;;778860;179;736285;-62
2021/03/27 11:26:14;;;;;;;27.53;16.07;;;;;;;;;;779452;179;628079;-62
2021/03/27 11:28:47;;;;;;;31.73;16.90;;;;;;;;;;777246;179;627763;-61
2021/03/27 11:31:19;;;;;;;31.57;15.27;;;;;;;;;;781979;179;630881;-61
2021/03/27 11:34:00;;;;;;;26.87;15.20;;;;;;;;;;783198;179;686429;-61
2021/03/27 11:36:26;;;;;;;30.80;15.30;;;;;;;;;;780119;179;630524;-61
2021/03/27 11:39:03;;;;;;;27.10;14.57;;;;;;;;;;782112;179;636484;-60
2021/03/27 11:41:29;;;;;;;32.53;15.80;;;;;;;;;;779784;177;647048;-61
2021/03/27 11:44:14;;;;;;;33.43;17.93;;;;;;;;;;786501;179;641982;-61
2021/03/27 11:46:41;;;;;;;29.77;15.87;;;;;;;;;;786439;179;659877;-61
2021/03/27 11:49:22;;;;;;;26.57;16.33;;;;;;;;;;789232;179;623015;-61
2021/03/27 11:51:48;;;;;;;33.43;19.37;;;;;;;;;;771240;179;637417;-62
2021/03/27 11:54:20;;;;;;;27.50;16.97;;;;;;;;;;780512;179;637190;-66
2021/03/27 11:56:55;;;;;;;29.53;15.73;;;;;;;;;;780159;179;631765;-62
2021/03/27 12:01:56;;;;;;;29.27;16.47;;;;;;;;;;785445;179;626134;-62
2021/03/27 12:04:28;;;;;;;27.40;16.60;;;;;;;;;;772136;179;1629627;-61
2021/03/27 12:06:54;;;;;;;29.70;16.60;;;;;;;;;;779245;179;919635;-61
2021/03/27 12:09:20;;;;;;;28.50;13.85;;;;;;;;;;774321;179;918730;-61
2021/03/27 12:12:06;;;;;;;25.20;12.73;;;;;;;;;;784050;179;920143;-61
2021/03/27 12:14:34;;;;;;;23.37;12.90;;;;;;;;;;782311;179;918673;-62
2021/03/27 12:17:16;;;;;;;33.73;16.20;;;;;;;;;;777417;179;919477;-61
2021/03/27 12:19:47;;;;;;;31.65;16.85;;;;;;;;;;771719;179;918420;-63
2021/03/27 12:22:16;;;;;;;31.03;15.53;;;;;;;;;;776215;179;920376;-62
2021/03/27 12:24:42;;;;;;;31.47;14.13;;;;;;;;;;780676;179;918252;-60
2021/03/27 12:27:14;;;;;;;28.07;15.20;;;;;;;;;;781791;179;919233;-62
2021/03/27 12:29:41;;;;;;;29.03;16.67;;;;;;;;;;774106;179;920668;-61
2021/03/27 12:32:24;;;;;;;25.27;16.70;;;;;;;;;;777489;179;906741;-61
2021/03/27 12:34:50;;;;;;;26.30;14.87;;;;;;;;;;774450;179;920572;-64
2021/03/27 12:37:21;;;;;;;23.07;13.47;;;;;;;;;;781388;179;644034;-63
2021/03/27 12:40:00;;;;;;;23.30;13.70;;;;;;;;;;784106;179;646628;-62
2021/03/27 12:42:26;;;;;;;28.77;14.00;;;;;;;;;;784710;179;918595;-61
2021/03/27 12:44:53;;;;;;;22.00;13.07;;;;;;;;;;773355;179;920929;-62
2021/03/27 12:47:19;;;;;;;24.73;14.00;;;;;;;;;;777671;179;920353;-62
2021/03/27 12:49:55;;;;;;;27.00;15.33;;;;;;;;;;780410;179;918421;-62
2021/03/27 12:52:23;;;;;;;23.40;13.53;;;;;;;;;;786140;179;919512;-60
2021/03/27 12:54:55;;;;;;;22.83;14.60;;;;;;;;;;776808;177;933697;-61
2021/03/27 12:57:27;;;;;;;23.00;15.43;;;;;;;;;;779340;179;919814;-61
2021/03/27 12:59:56;;;;;;;25.80;15.40;;;;;;;;;;775320;178;1020643;-61
2021/03/27 13:02:40;;;;;;;19.00;12.80;;;;;;;;;;783629;179;920152;-60
2021/03/27 13:05:09;;;;;;;20.97;13.17;;;;;;;;;;770452;179;919859;-62
2021/03/27 13:07:51;;;;;;;22.65;15.90;;;;;;;;;;777012;179;919813;-62
2021/03/27 13:10:35;;;;;;;25.57;14.57;;;;;;;;;;772076;179;996023;-61
2021/03/27 13:13:18;;;;;;;22.43;15.23;;;;;;;;;;776303;179;919451;-60
2021/03/27 13:16:01;;;;;;;29.30;15.40;;;;;;;;;;773452;179;933388;-63
2021/03/27 13:18:27;;;;;;;24.67;16.57;;;;;;;;;;776379;179;920010;-61
2021/03/27 13:20:57;;;;;;;31.13;17.43;;;;;;;;;;774208;179;922264;-61
2021/03/27 13:23:23;;;;;;;23.10;14.18;;;;;;;;;;774799;179;919213;-61
2021/03/27 13:25:54;;;;;;;21.80;11.30;;;;;;;;;;780373;179;919484;-60
2021/03/27 13:28:19;;;;;;;20.17;12.60;;;;;;;;;;776434;179;1114957;-61
2021/03/27 13:30:45;;;;;;;16.33;10.50;;;;;;;;;;773232;179;1544088;-60
2021/03/27 13:33:21;;;;;;;14.10;9.00;;;;;;;;;;781972;179;920124;-61
2021/03/27 13:36:05;;;;;;;14.37;9.53;;;;;;;;;;778011;179;917430;-60
2021/03/27 13:38:31;;;;;;;20.33;10.50;;;;;;;;;;776509;179;916926;-61
2021/03/27 13:40:57;;;;;;;18.63;10.70;;;;;;;;;;774559;179;919453;-63
2021/03/27 13:43:23;;;;;;;16.17;10.63;;;;;;;;;;777047;179;919413;-61
2021/03/27 13:46:03;;;;;;;18.60;11.43;;;;;;;;;;781029;179;908842;-61
2021/03/27 13:48:32;;;;;;;16.67;10.60;;;;;;;;;;785211;179;1045236;-60
2021/03/27 13:51:17;;;;;;;15.70;9.30;;;;;;;;;;776053;179;919826;-61
2021/03/27 13:53:43;;;;;;;17.20;10.50;;;;;;;;;;781225;179;920168;-60
2021/03/27 13:56:25;;;;;;;16.67;11.10;;;;;;;;;;776669;179;918731;-61
2021/03/27 13:58:53;;;;;;;17.67;9.87;;;;;;;;;;759775;179;1117180;-65
2021/03/27 14:01:19;;;;;;;17.67;10.90;;;;;;;;;;776820;179;920639;-60
2021/03/27 14:04:00;;;;;;;14.53;8.93;;;;;;;;;;781434;179;912067;-61
2021/03/27 14:06:28;;;;;;;15.27;9.17;;;;;;;;;;785492;178;919525;-61
2021/03/27 14:08:59;;;;;;;12.97;8.87;;;;;;;;;;776487;179;917212;-60
2021/03/27 14:11:25;;;;;;;16.80;8.97;;;;;;;;;;777080;179;920257;-64
2021/03/27 14:13:54;;;;;;;18.00;9.23;;;;;;;;;;775080;179;1669039;-61
2021/03/27 14:16:25;;;;;;;19.33;8.87;;;;;;;;;;783183;178;919658;-60
2021/03/27 14:18:51;;;;;;;15.57;9.17;;;;;;;;;;775621;179;917090;-62
2021/03/27 14:21:22;;;;;;;16.23;8.87;;;;;;;;;;778339;179;919489;-60
2021/03/27 14:24:06;;;;;;;13.70;9.40;;;;;;;;;;775353;179;1017276;-60
2021/03/27 14:26:32;;;;;;;16.30;8.73;;;;;;;;;;777574;179;920242;-60
2021/03/27 14:28:58;;;;;;;16.33;8.90;;;;;;;;;;783666;179;918793;-61